Aérodrome :
LOGIN :

S'inscrire | Disclaimer

   EN    FR    IT 

 










Légende :    VFR   VFR Marginal   IFR   IFR Intensif   IFR Très Intensif
Visi : 
Plafond : 
>= 8 km
>= 3000ft
5 à 8 km
1000 à 3000 ft
1500m à 5 km
500 à 1000 ft
800 à 1500m
200 à 500 ft
< 800m
< 200 ft
Symboles :   Orages  Brouillard  Fortes neiges  Fortes précipitations  Vent > 20 kt
SIGMETs :   Divers  Orages  Givrage  Turbulence  Onde Orograph.  Cendres Volcan.







- Altitude de l'aérodrome : 297 ft


EGVP - Middle Wallop

DERNIER METAR :
  • 192250Z AUTO 19014KT 9999 // SCT016/// BKN030/// 12/10 Q0997

METARs EXPIRÉS :
  • 192150Z AUTO 20013KT 9999 // FEW012/// SCT029/// 13/11 Q0997
  • 192050Z 18016G27KT 9999 FEW013 BKN030 13/12 Q0997 BLU
  • 192034Z 17020G31KT 9999 -RA FEW005 BKN020 13/13 Q0997 WHT BECMG FEW020 BKN030 BLU
  • 192020Z 15021G33KT 4000 RADZ SCT006 BKN008 13/12 Q0997 YLO1 TEMPO 3000 +SHRA YLO1

TAF TAF EGVP
Valide du 19 à 21h jusqu'au 20 à 00h UTC


191935Z 1921/1924 16018KT 9999 BKN010 BKN042
BECMG 1921/1923 20016KT SCT040
PROB40
TEMPO 1921/1922 19020G30KT 4000 +SHRA SCT006
PROB30 1923/1924 SCT014
ATIS : +44 1980 674 142
Pas de NOTAMs connus pour ce terrain.
1 SIGMET publié pour la FIR London (EGTT) :
 
Turbulence forte
EGTT SIGMET 03 VALID 192020/192330 EGRR
EGTT LONDON FIR SEV TURB FCST WI N5149 W00608 - N5024 W00401 - N5034 W00229 - N5000 W00200 - N4919 W00538 - N5053 W00720 - N5149 W00608 SFC/FL060 MOV E 20KT NC=



MET'MAP, la Météo Aéronautique d'un coup d'oeil ! - Copyright ORBIFLY Décembre 2007 - Disclaimer

ORBIFLY MET'MAP TEAM :

Programmation & Développement : Alexandra Zaïnal
Conception & Développement : Baudouin d'Aumeries
Co-Programmation & Développement : Marc-Olivier Méhu
Soutien technique & logistique : Manuel Goepfert

Contact : metmap@orbifly.com




SOURCES & CREDITS :

   NOAA